createdAt,value
2023-01-30T00:00:20.971Z,-1.60
2023-01-30T00:00:57.814Z,-1.61
2023-01-30T00:01:32.651Z,-1.59
2023-01-30T00:02:04.377Z,-1.64
2023-01-30T00:02:37.990Z,-1.68
2023-01-30T00:03:09.659Z,-1.67
2023-01-30T00:03:43.080Z,-1.64
2023-01-30T00:04:17.147Z,-1.64
2023-01-30T00:04:49.053Z,-1.62
2023-01-30T00:05:20.715Z,-1.68
2023-01-30T00:05:52.997Z,-1.64
2023-01-30T00:06:31.431Z,-1.61
2023-01-30T00:07:03.087Z,-1.62
2023-01-30T00:07:34.705Z,-1.66
2023-01-30T00:08:06.352Z,-1.68
2023-01-30T00:08:38.743Z,-1.65
2023-01-30T00:09:16.378Z,-1.66
2023-01-30T00:09:55.166Z,-1.68
2023-01-30T00:10:26.816Z,-1.68
2023-01-30T00:11:06.920Z,-1.74
2023-01-30T00:11:38.580Z,-1.76
2023-01-30T00:12:13.062Z,-1.80
2023-01-30T00:12:44.765Z,-1.83
2023-01-30T00:13:17.001Z,-1.84
2023-01-30T00:13:50.754Z,-1.86
2023-01-30T00:14:22.484Z,-1.82
2023-01-30T00:14:55.726Z,-1.91
2023-01-30T00:15:28.890Z,-1.91
2023-01-30T00:16:01.082Z,-1.86
2023-01-30T00:16:34.036Z,-1.85
2023-01-30T00:17:05.777Z,-1.83
2023-01-30T00:17:37.448Z,-1.83
2023-01-30T00:18:12.984Z,-1.84
2023-01-30T00:18:45.094Z,-1.85
2023-01-30T00:19:16.714Z,-1.85
2023-01-30T00:19:50.733Z,-1.84
2023-01-30T00:20:22.466Z,-1.84
2023-01-30T00:21:01.177Z,-1.83
2023-01-30T00:21:32.948Z,-1.84
2023-01-30T00:22:04.662Z,-1.84
2023-01-30T00:22:36.306Z,-1.84
2023-01-30T00:23:07.968Z,-1.83
2023-01-30T00:23:40.021Z,-1.79
2023-01-30T00:24:12.000Z,-1.79
2023-01-30T00:24:43.758Z,-1.80
2023-01-30T00:25:15.686Z,-1.81
2023-01-30T00:25:47.523Z,-1.79
2023-01-30T00:26:19.466Z,-1.77
2023-01-30T00:26:51.165Z,-1.79
2023-01-30T00:27:22.836Z,-1.81
2023-01-30T00:27:54.597Z,-1.81
2023-01-30T00:28:26.469Z,-1.81
2023-01-30T00:28:58.182Z,-1.79
2023-01-30T00:29:29.813Z,-1.82
2023-01-30T00:30:04.371Z,-1.84
2023-01-30T00:30:36.084Z,-1.84
2023-01-30T00:31:08.341Z,-1.83
2023-01-30T00:31:40.039Z,-1.83
2023-01-30T00:32:14.644Z,-1.83
2023-01-30T00:32:46.295Z,-1.81
2023-01-30T00:33:18.782Z,-1.83
2023-01-30T00:33:50.434Z,-1.83
2023-01-30T00:34:22.111Z,-1.83
2023-01-30T00:34:53.780Z,-1.82
2023-01-30T00:35:28.675Z,-1.79
2023-01-30T00:36:03.680Z,-1.83
2023-01-30T00:36:35.399Z,-1.79
2023-01-30T00:37:08.623Z,-1.79
2023-01-30T00:37:40.385Z,-1.81
2023-01-30T00:38:12.315Z,-1.79
2023-01-30T00:38:45.548Z,-1.76
2023-01-30T00:39:19.327Z,-1.78
2023-01-30T00:39:51.374Z,-1.76
2023-01-30T00:40:23.059Z,-1.80
2023-01-30T00:40:54.787Z,-1.84
2023-01-30T00:41:46.410Z,-1.87
2023-01-30T00:42:36.560Z,-1.89
2023-01-30T00:43:33.994Z,-1.89
2023-01-30T00:44:24.637Z,-1.92
2023-01-30T00:45:14.993Z,-1.96
2023-01-30T00:46:06.890Z,-1.95
2023-01-30T00:46:57.089Z,-1.95
2023-01-30T00:47:28.718Z,-1.92
2023-01-30T00:48:02.971Z,-1.92
2023-01-30T00:48:34.697Z,-1.93
2023-01-30T00:49:08.933Z,-1.95
2023-01-30T00:49:42.298Z,-1.96
2023-01-30T00:50:16.549Z,-1.98
2023-01-30T00:50:48.182Z,-1.97
2023-01-30T00:51:19.848Z,-1.93
2023-01-30T00:51:51.777Z,-1.92
2023-01-30T00:52:23.433Z,-1.93
2023-01-30T00:52:55.078Z,-1.92
2023-01-30T00:53:26.788Z,-1.92
2023-01-30T00:53:58.450Z,-1.96
2023-01-30T00:54:30.970Z,-1.96
2023-01-30T00:55:02.869Z,-1.96
2023-01-30T00:55:34.547Z,-1.97
2023-01-30T00:56:06.781Z,-1.98
2023-01-30T00:56:39.825Z,-1.98
2023-01-30T00:57:11.465Z,-1.96
2023-01-30T00:57:45.153Z,-1.93
2023-01-30T00:58:16.848Z,-1.95
2023-01-30T00:58:48.533Z,-1.97
2023-01-30T00:59:20.179Z,-1.99
2023-01-30T00:59:51.858Z,-2.00
2023-01-30T01:00:23.500Z,-2.01
2023-01-30T01:00:56.225Z,-2.01
2023-01-30T01:01:36.591Z,-1.99
2023-01-30T01:02:08.309Z,-1.99
2023-01-30T01:02:40.010Z,-1.98
2023-01-30T01:03:11.736Z,-1.99
2023-01-30T01:03:43.753Z,-2.00
2023-01-30T01:04:15.434Z,-2.03
2023-01-30T01:04:49.141Z,-2.02
2023-01-30T01:05:20.936Z,-2.01
2023-01-30T01:05:54.732Z,-1.98
2023-01-30T01:06:28.805Z,-1.99
2023-01-30T01:07:00.458Z,-2.01
2023-01-30T01:07:34.684Z,-2.02
2023-01-30T01:08:06.894Z,-1.99
2023-01-30T01:08:38.631Z,-2.04
2023-01-30T01:09:12.936Z,-2.07
2023-01-30T01:09:44.590Z,-2.09
2023-01-30T01:10:16.709Z,-2.10
2023-01-30T01:10:48.491Z,-2.06
2023-01-30T01:11:29.106Z,-2.04
2023-01-30T01:12:00.810Z,-2.05
2023-01-30T01:12:32.477Z,-2.07
2023-01-30T01:13:06.483Z,-2.07
2023-01-30T01:13:38.104Z,-2.10
2023-01-30T01:14:09.861Z,-2.12
2023-01-30T01:14:43.658Z,-2.14
2023-01-30T01:15:15.768Z,-2.13
2023-01-30T01:15:54.646Z,-2.13
2023-01-30T01:16:27.885Z,-2.17
2023-01-30T01:16:59.754Z,-2.16
2023-01-30T01:17:33.450Z,-2.16
2023-01-30T01:18:05.362Z,-2.18
2023-01-30T01:18:37.135Z,-2.15
2023-01-30T01:19:11.095Z,-2.17
2023-01-30T01:19:42.754Z,-2.19
2023-01-30T01:20:16.471Z,-2.22
2023-01-30T01:20:48.216Z,-2.26
2023-01-30T01:21:21.651Z,-2.26
2023-01-30T01:21:53.345Z,-2.30
2023-01-30T01:22:27.043Z,-2.27
2023-01-30T01:22:58.785Z,-2.29
2023-01-30T01:23:30.425Z,-2.29
2023-01-30T01:24:02.148Z,-2.32
2023-01-30T01:24:35.725Z,-2.34
2023-01-30T01:25:10.073Z,-2.35
2023-01-30T01:25:41.740Z,-2.36
2023-01-30T01:26:13.404Z,-2.38
2023-01-30T01:26:45.551Z,-2.38
2023-01-30T01:27:17.886Z,-2.38
2023-01-30T01:27:50.260Z,-2.35
2023-01-30T01:28:22.320Z,-2.36
2023-01-30T01:28:58.130Z,-2.38
2023-01-30T01:29:31.854Z,-2.37
2023-01-30T01:30:04.493Z,-2.40
2023-01-30T01:30:36.174Z,-2.43
2023-01-30T01:31:13.281Z,-2.43
2023-01-30T01:31:45.567Z,-2.40
2023-01-30T01:32:17.336Z,-2.41
2023-01-30T01:32:49.043Z,-2.43
2023-01-30T01:33:20.724Z,-2.48
2023-01-30T01:33:52.437Z,-2.46
2023-01-30T01:34:24.105Z,-2.46
2023-01-30T01:34:55.762Z,-2.43
2023-01-30T01:35:27.409Z,-2.47
2023-01-30T01:35:59.036Z,-2.49
2023-01-30T01:36:53.224Z,-2.48
2023-01-30T01:37:22.477Z,-2.47
2023-01-30T01:37:54.717Z,-2.49
2023-01-30T01:38:26.380Z,-2.50
2023-01-30T01:38:58.124Z,-2.48
2023-01-30T01:39:49.723Z,-2.53
2023-01-30T01:40:41.060Z,-2.53
2023-01-30T01:41:14.373Z,-2.53
2023-01-30T01:41:46.015Z,-2.54
2023-01-30T01:42:18.463Z,-2.56
2023-01-30T01:42:51.089Z,-2.52
2023-01-30T01:43:25.246Z,-2.55
2023-01-30T01:44:05.715Z,-2.57
2023-01-30T01:45:11.552Z,-2.55
2023-01-30T01:45:44.577Z,-2.61
2023-01-30T01:46:23.654Z,-2.59
2023-01-30T01:47:00.301Z,-2.59
2023-01-30T01:47:38.033Z,-2.61
2023-01-30T01:48:19.044Z,-2.59
2023-01-30T01:49:00.236Z,-2.64
2023-01-30T01:49:37.587Z,-2.66
2023-01-30T01:50:31.123Z,-2.65
2023-01-30T01:51:07.001Z,-2.69
2023-01-30T01:51:47.450Z,-2.69
2023-01-30T01:52:19.293Z,-2.70
2023-01-30T01:52:59.228Z,-2.72
2023-01-30T01:53:37.525Z,-2.70
2023-01-30T01:54:16.977Z,-2.73
2023-01-30T01:54:57.116Z,-2.70
2023-01-30T01:55:33.985Z,-2.69
2023-01-30T01:56:07.634Z,-2.66
2023-01-30T01:56:43.918Z,-2.67
2023-01-30T01:57:27.898Z,-2.67
2023-01-30T01:58:13.002Z,-2.68
2023-01-30T01:59:05.288Z,-2.69
2023-01-30T01:59:50.274Z,-2.68
2023-01-30T02:00:25.066Z,-2.69
2023-01-30T02:00:59.581Z,-2.70
2023-01-30T02:01:31.889Z,-2.66
2023-01-30T02:02:09.268Z,-2.68
2023-01-30T02:02:45.242Z,-2.68
2023-01-30T02:03:23.560Z,-2.66
2023-01-30T02:04:01.990Z,-2.67
2023-01-30T02:04:57.726Z,-2.70
2023-01-30T02:05:35.099Z,-2.72
2023-01-30T02:06:07.523Z,-2.72
2023-01-30T02:06:42.131Z,-2.69
2023-01-30T02:07:17.597Z,-2.74
2023-01-30T02:08:11.441Z,-2.76
2023-01-30T02:08:57.383Z,-2.77
2023-01-30T02:09:36.223Z,-2.75
2023-01-30T02:10:13.789Z,-2.80
2023-01-30T02:11:10.179Z,-2.82
2023-01-30T02:11:52.702Z,-2.77
2023-01-30T02:12:25.641Z,-2.81
2023-01-30T02:12:57.330Z,-2.81
2023-01-30T02:13:29.518Z,-2.80
2023-01-30T02:14:03.105Z,-2.80
2023-01-30T02:14:37.379Z,-2.83
2023-01-30T02:15:09.488Z,-2.82
2023-01-30T02:15:41.538Z,-2.90
2023-01-30T02:16:14.028Z,-2.86
2023-01-30T02:16:47.333Z,-2.85
2023-01-30T02:17:20.025Z,-2.87
2023-01-30T02:17:54.005Z,-2.87
2023-01-30T02:18:27.397Z,-2.87
2023-01-30T02:19:01.645Z,-2.86
2023-01-30T02:20:03.430Z,-2.85
2023-01-30T02:20:37.947Z,-2.86
2023-01-30T02:21:59.414Z,-2.89
2023-01-30T02:23:24.088Z,-2.90
2023-01-30T02:24:16.098Z,-2.93
2023-01-30T02:24:53.210Z,-2.93
2023-01-30T02:26:06.107Z,-2.91
2023-01-30T02:26:52.400Z,-2.92
2023-01-30T02:28:18.712Z,-2.94
2023-01-30T02:29:13.594Z,-2.97
2023-01-30T02:30:03.700Z,-2.98
2023-01-30T02:30:50.549Z,-2.96
2023-01-30T02:31:25.650Z,-2.95
2023-01-30T02:32:16.088Z,-2.97
2023-01-30T02:33:01.335Z,-2.97
2023-01-30T02:33:52.044Z,-2.97
2023-01-30T02:34:31.845Z,-2.98
2023-01-30T02:35:06.214Z,-2.98
2023-01-30T02:35:56.156Z,-2.96
2023-01-30T02:36:38.075Z,-2.94
2023-01-30T02:37:15.669Z,-2.92
2023-01-30T02:38:24.559Z,-2.93
2023-01-30T02:39:19.249Z,-2.93
2023-01-30T02:40:08.388Z,-2.93
2023-01-30T02:40:52.094Z,-2.93
2023-01-30T02:41:45.463Z,-2.95
2023-01-30T02:42:40.357Z,-2.97
2023-01-30T02:43:25.383Z,-3.00
2023-01-30T02:44:05.834Z,-3.01
2023-01-30T02:44:43.251Z,-3.02
2023-01-30T02:45:20.894Z,-3.06
2023-01-30T02:46:07.672Z,-3.07
2023-01-30T02:46:58.109Z,-3.08
2023-01-30T02:47:41.873Z,-3.11
2023-01-30T02:48:21.724Z,-3.13
2023-01-30T02:49:09.077Z,-3.15
2023-01-30T02:49:55.962Z,-3.15
2023-01-30T02:51:07.745Z,-3.18
2023-01-30T02:51:43.156Z,-3.16
2023-01-30T02:52:17.488Z,-3.17
2023-01-30T02:52:50.193Z,-3.22
2023-01-30T02:53:22.031Z,-3.23
2023-01-30T02:53:54.602Z,-3.24
2023-01-30T02:54:29.191Z,-3.28
2023-01-30T02:55:02.662Z,-3.31
2023-01-30T02:55:35.690Z,-3.30
2023-01-30T02:56:07.602Z,-3.33
2023-01-30T02:56:46.920Z,-3.29
2023-01-30T02:57:24.285Z,-3.32
2023-01-30T02:57:56.308Z,-3.35
2023-01-30T02:58:37.199Z,-3.39
2023-01-30T02:59:09.246Z,-3.33
2023-01-30T02:59:47.245Z,-3.33
2023-01-30T03:00:27.771Z,-3.35
2023-01-30T03:01:20.485Z,-3.32
2023-01-30T03:02:19.432Z,-3.36
2023-01-30T03:03:07.508Z,-3.37
2023-01-30T03:03:51.038Z,-3.36
2023-01-30T03:04:31.118Z,-3.39
2023-01-30T03:05:28.974Z,-3.41
2023-01-30T03:06:09.319Z,-3.41
2023-01-30T03:07:01.507Z,-3.41
2023-01-30T03:07:46.530Z,-3.45
2023-01-30T03:08:36.899Z,-3.43
2023-01-30T03:09:11.165Z,-3.46
2023-01-30T03:10:13.122Z,-3.47
2023-01-30T03:10:47.493Z,-3.46
2023-01-30T03:11:24.470Z,-3.48
2023-01-30T03:12:16.751Z,-3.48
2023-01-30T03:13:20.910Z,-3.49
2023-01-30T03:14:04.157Z,-3.51
2023-01-30T03:14:48.312Z,-3.56
2023-01-30T03:16:09.408Z,-3.60
2023-01-30T03:16:44.648Z,-3.62
2023-01-30T03:17:20.867Z,-3.61
2023-01-30T03:17:56.390Z,-3.59
2023-01-30T03:18:31.178Z,-3.61
2023-01-30T03:19:06.022Z,-3.66
2023-01-30T03:19:38.380Z,-3.66
2023-01-30T03:20:10.895Z,-3.67
2023-01-30T03:20:42.657Z,-3.63
2023-01-30T03:21:21.640Z,-3.63
2023-01-30T03:21:53.272Z,-3.66
2023-01-30T03:22:24.956Z,-3.68
2023-01-30T03:22:56.631Z,-3.66
2023-01-30T03:23:28.314Z,-3.66
2023-01-30T03:23:59.970Z,-3.63
2023-01-30T03:24:31.670Z,-3.61
2023-01-30T03:25:03.440Z,-3.61
2023-01-30T03:25:38.255Z,-3.62
2023-01-30T03:26:18.375Z,-3.62
2023-01-30T03:27:05.828Z,-3.64
2023-01-30T03:27:39.085Z,-3.64
2023-01-30T03:28:12.783Z,-3.66
2023-01-30T03:28:47.398Z,-3.63
2023-01-30T03:29:19.043Z,-3.65
2023-01-30T03:29:54.822Z,-3.65
2023-01-30T03:30:26.809Z,-3.64
2023-01-30T03:30:58.676Z,-3.68
2023-01-30T03:31:30.583Z,-3.68
2023-01-30T03:32:02.454Z,-3.71
2023-01-30T03:32:34.105Z,-3.74
2023-01-30T03:33:07.851Z,-3.76
2023-01-30T03:33:41.901Z,-3.76
2023-01-30T03:34:13.593Z,-3.76
2023-01-30T03:34:45.236Z,-3.75
2023-01-30T03:35:18.163Z,-3.73
2023-01-30T03:35:52.286Z,-3.73
2023-01-30T03:36:24.043Z,-3.77
2023-01-30T03:36:57.566Z,-3.84
2023-01-30T03:37:29.356Z,-3.89
2023-01-30T03:38:03.674Z,-3.93
2023-01-30T03:38:36.194Z,-3.98
2023-01-30T03:39:08.453Z,-3.96
2023-01-30T03:39:40.295Z,-3.96
2023-01-30T03:40:14.515Z,-3.92
2023-01-30T03:40:46.586Z,-3.91
2023-01-30T03:41:18.356Z,-3.93
2023-01-30T03:41:50.436Z,-3.98
2023-01-30T03:42:22.338Z,-3.99
2023-01-30T03:42:53.969Z,-3.94
2023-01-30T03:43:25.638Z,-3.89
2023-01-30T03:43:59.972Z,-3.89
2023-01-30T03:44:31.662Z,-3.88
2023-01-30T03:45:03.565Z,-3.87
2023-01-30T03:45:35.320Z,-3.88
2023-01-30T03:46:07.039Z,-3.89
2023-01-30T03:46:38.741Z,-3.89
2023-01-30T03:47:10.417Z,-3.88
2023-01-30T03:47:42.043Z,-3.87
2023-01-30T03:48:15.762Z,-3.91
2023-01-30T03:48:47.417Z,-3.91
2023-01-30T03:49:19.097Z,-3.93
2023-01-30T03:49:50.760Z,-3.92
2023-01-30T03:50:22.439Z,-3.93
2023-01-30T03:50:54.473Z,-3.94
2023-01-30T03:51:26.182Z,-3.97
2023-01-30T03:51:57.839Z,-4.00
2023-01-30T03:52:29.478Z,-4.02
2023-01-30T03:53:03.576Z,-4.01
2023-01-30T03:53:37.265Z,-3.98
2023-01-30T03:54:16.329Z,-3.98
2023-01-30T03:54:48.160Z,-3.96
2023-01-30T03:55:20.054Z,-3.97
2023-01-30T03:55:53.686Z,-3.96
2023-01-30T03:56:25.522Z,-3.96
2023-01-30T03:56:58.637Z,-4.00
2023-01-30T03:57:30.473Z,-4.02
2023-01-30T03:58:02.130Z,-4.05
2023-01-30T03:58:33.795Z,-4.02
2023-01-30T03:59:05.409Z,-4.03
2023-01-30T03:59:37.062Z,-4.02
2023-01-30T04:00:09.605Z,-3.98
2023-01-30T04:00:41.253Z,-3.98
2023-01-30T04:01:14.977Z,-3.99
2023-01-30T04:01:46.651Z,-4.03
2023-01-30T04:02:23.074Z,-4.10
2023-01-30T04:02:55.273Z,-4.09
2023-01-30T04:03:28.180Z,-4.10
2023-01-30T04:03:59.925Z,-4.10
2023-01-30T04:04:34.519Z,-4.04
2023-01-30T04:05:06.578Z,-4.06
2023-01-30T04:05:40.831Z,-4.09
2023-01-30T04:06:12.478Z,-4.07
2023-01-30T04:06:44.134Z,-4.06
2023-01-30T04:07:17.154Z,-4.09
2023-01-30T04:07:49.446Z,-4.11
2023-01-30T04:08:21.185Z,-4.08
2023-01-30T04:08:55.655Z,-4.04
2023-01-30T04:09:27.384Z,-4.07
2023-01-30T04:09:59.032Z,-4.07
2023-01-30T04:10:30.679Z,-4.08
2023-01-30T04:11:02.359Z,-4.06
2023-01-30T04:11:34.011Z,-4.11
2023-01-30T04:12:05.938Z,-4.07
2023-01-30T04:12:40.178Z,-4.06
2023-01-30T04:13:11.830Z,-4.09
2023-01-30T04:13:43.458Z,-4.10
2023-01-30T04:14:17.719Z,-4.11
2023-01-30T04:14:49.367Z,-4.16
2023-01-30T04:15:25.103Z,-4.18
2023-01-30T04:16:20.715Z,-4.21
2023-01-30T04:16:52.433Z,-4.17
2023-01-30T04:17:26.419Z,-4.17
2023-01-30T04:17:58.164Z,-4.17
2023-01-30T04:18:29.821Z,-4.19
2023-01-30T04:19:04.267Z,-4.16
2023-01-30T04:19:35.907Z,-4.16
2023-01-30T04:20:12.106Z,-4.21
2023-01-30T04:20:44.898Z,-4.27
2023-01-30T04:21:17.008Z,-4.28
2023-01-30T04:21:48.660Z,-4.24
2023-01-30T04:22:20.319Z,-4.24
2023-01-30T04:22:54.290Z,-4.22
2023-01-30T04:23:25.938Z,-4.22
2023-01-30T04:24:01.906Z,-4.21
2023-01-30T04:24:35.123Z,-4.19
2023-01-30T04:25:07.008Z,-4.16
2023-01-30T04:25:38.644Z,-4.15
2023-01-30T04:26:14.700Z,-4.16
2023-01-30T04:26:47.937Z,-4.15
2023-01-30T04:27:22.225Z,-4.16
2023-01-30T04:27:53.857Z,-4.14
2023-01-30T04:28:25.994Z,-4.11
2023-01-30T04:28:59.159Z,-4.12
2023-01-30T04:29:30.801Z,-4.14
2023-01-30T04:30:02.531Z,-4.13
2023-01-30T04:30:36.297Z,-4.11
2023-01-30T04:31:08.172Z,-4.12
2023-01-30T04:31:39.895Z,-4.12
2023-01-30T04:32:11.594Z,-4.16
2023-01-30T04:32:52.880Z,-4.15
2023-01-30T04:33:33.233Z,-4.16
2023-01-30T04:34:07.556Z,-4.15
2023-01-30T04:34:40.721Z,-4.14
2023-01-30T04:35:14.377Z,-4.16
2023-01-30T04:35:57.329Z,-4.15
2023-01-30T04:36:32.099Z,-4.16
2023-01-30T04:37:03.803Z,-4.18
2023-01-30T04:37:35.575Z,-4.18
2023-01-30T04:38:07.278Z,-4.19
2023-01-30T04:38:39.542Z,-4.22
2023-01-30T04:39:11.202Z,-4.22
2023-01-30T04:39:42.874Z,-4.22
2023-01-30T04:40:17.179Z,-4.24
2023-01-30T04:40:51.820Z,-4.27
2023-01-30T04:41:25.820Z,-4.28
2023-01-30T04:41:57.470Z,-4.26
2023-01-30T04:42:29.121Z,-4.27
2023-01-30T04:43:00.779Z,-4.28
2023-01-30T04:43:32.482Z,-4.24
2023-01-30T04:44:04.240Z,-4.23
2023-01-30T04:44:35.859Z,-4.22
2023-01-30T04:45:08.042Z,-4.22
2023-01-30T04:45:43.522Z,-4.24
2023-01-30T04:46:15.223Z,-4.24
2023-01-30T04:46:46.953Z,-4.26
2023-01-30T04:47:18.654Z,-4.26
2023-01-30T04:47:52.694Z,-4.24
2023-01-30T04:48:29.403Z,-4.26
2023-01-30T04:49:01.040Z,-4.24
2023-01-30T04:49:32.685Z,-4.25
2023-01-30T04:50:04.611Z,-4.23
2023-01-30T04:50:36.269Z,-4.23
2023-01-30T04:51:10.849Z,-4.22
2023-01-30T04:51:42.502Z,-4.26
2023-01-30T04:52:14.157Z,-4.25
2023-01-30T04:52:45.831Z,-4.22
2023-01-30T04:53:18.424Z,-4.28
2023-01-30T04:53:50.117Z,-4.26
2023-01-30T04:54:21.926Z,-4.27
2023-01-30T04:55:00.925Z,-4.29
2023-01-30T04:55:32.964Z,-4.30
2023-01-30T04:56:05.082Z,-4.29
2023-01-30T04:56:36.749Z,-4.33
2023-01-30T04:57:08.448Z,-4.33
2023-01-30T04:57:40.092Z,-4.32
2023-01-30T04:58:13.360Z,-4.34
2023-01-30T04:58:45.058Z,-4.36
2023-01-30T04:59:16.787Z,-4.35
2023-01-30T04:59:48.544Z,-4.35
2023-01-30T05:00:20.323Z,-4.37
2023-01-30T05:00:52.016Z,-4.40
2023-01-30T05:01:23.722Z,-4.38
2023-01-30T05:01:55.626Z,-4.39
2023-01-30T05:02:27.330Z,-4.38
2023-01-30T05:02:59.361Z,-4.39
2023-01-30T05:03:30.992Z,-4.38
2023-01-30T05:04:03.794Z,-4.38
2023-01-30T05:04:35.517Z,-4.37
2023-01-30T05:05:07.434Z,-4.36
2023-01-30T05:05:39.171Z,-4.37
2023-01-30T05:06:10.909Z,-4.39
2023-01-30T05:06:42.628Z,-4.39
2023-01-30T05:07:14.260Z,-4.42
2023-01-30T05:07:54.922Z,-4.40
2023-01-30T05:08:26.572Z,-4.40
2023-01-30T05:08:58.721Z,-4.41
2023-01-30T05:09:30.347Z,-4.43
2023-01-30T05:10:02.998Z,-4.43
2023-01-30T05:10:37.224Z,-4.42
2023-01-30T05:11:08.907Z,-4.43
2023-01-30T05:11:40.579Z,-4.44
2023-01-30T05:12:14.672Z,-4.44
2023-01-30T05:12:49.087Z,-4.42
2023-01-30T05:13:23.936Z,-4.45
2023-01-30T05:13:55.637Z,-4.46
2023-01-30T05:14:27.268Z,-4.45
2023-01-30T05:14:58.924Z,-4.44
2023-01-30T05:15:32.680Z,-4.43
2023-01-30T05:16:04.651Z,-4.42
2023-01-30T05:16:36.287Z,-4.44
2023-01-30T05:17:09.618Z,-4.42
2023-01-30T05:17:44.719Z,-4.44
2023-01-30T05:18:16.453Z,-4.44
2023-01-30T05:18:48.675Z,-4.43
2023-01-30T05:19:20.309Z,-4.43
2023-01-30T05:19:54.294Z,-4.47
2023-01-30T05:20:25.980Z,-4.47
2023-01-30T05:21:13.446Z,-4.48
2023-01-30T05:21:46.619Z,-4.51
2023-01-30T05:22:18.271Z,-4.50
2023-01-30T05:22:49.992Z,-4.47
2023-01-30T05:23:21.632Z,-4.46
2023-01-30T05:23:53.819Z,-4.47
2023-01-30T05:24:26.922Z,-4.48
2023-01-30T05:24:58.586Z,-4.50
2023-01-30T05:25:37.430Z,-4.48
2023-01-30T05:26:10.280Z,-4.51
2023-01-30T05:26:41.952Z,-4.50
2023-01-30T05:27:13.595Z,-4.52
2023-01-30T05:27:45.240Z,-4.52
2023-01-30T05:28:16.900Z,-4.51
2023-01-30T05:28:56.373Z,-4.49
2023-01-30T05:29:28.069Z,-4.49
2023-01-30T05:29:59.716Z,-4.53
2023-01-30T05:30:31.429Z,-4.53
2023-01-30T05:31:09.243Z,-4.55
2023-01-30T05:31:41.057Z,-4.51
2023-01-30T05:32:14.398Z,-4.53
2023-01-30T05:32:53.516Z,-4.51
2023-01-30T05:33:27.222Z,-4.53
2023-01-30T05:33:58.967Z,-4.55
2023-01-30T05:34:30.687Z,-4.55
2023-01-30T05:35:02.383Z,-4.55
2023-01-30T05:35:36.102Z,-4.54
2023-01-30T05:36:08.299Z,-4.56
2023-01-30T05:36:40.112Z,-4.57
2023-01-30T05:37:12.557Z,-4.57
2023-01-30T05:37:44.245Z,-4.54
2023-01-30T05:38:18.568Z,-4.52
2023-01-30T05:38:52.176Z,-4.52
2023-01-30T05:39:23.904Z,-4.53
2023-01-30T05:39:55.556Z,-4.54
2023-01-30T05:40:35.483Z,-4.54
2023-01-30T05:41:08.424Z,-4.55
2023-01-30T05:41:40.283Z,-4.55
2023-01-30T05:42:15.131Z,-4.53
2023-01-30T05:42:46.806Z,-4.55
2023-01-30T05:43:18.502Z,-4.56
2023-01-30T05:43:51.080Z,-4.53
2023-01-30T05:44:22.792Z,-2.99
2023-01-30T05:44:54.479Z,-3.45
2023-01-30T05:45:26.136Z,-3.83
2023-01-30T05:45:59.647Z,-4.02
2023-01-30T05:46:31.316Z,-4.08
2023-01-30T05:47:03.003Z,-4.14
2023-01-30T05:47:36.723Z,-3.26
2023-01-30T05:48:08.368Z,-2.40
2023-01-30T05:48:42.382Z,-2.73
2023-01-30T05:49:14.282Z,-3.10
2023-01-30T05:49:47.154Z,-3.28
2023-01-30T05:50:18.873Z,-3.48
2023-01-30T05:51:41.419Z,-3.54
2023-01-30T05:52:13.057Z,-3.57
2023-01-30T05:52:47.298Z,-3.58
2023-01-30T05:53:23.288Z,-3.62
2023-01-30T05:53:57.304Z,-3.65
2023-01-30T05:54:29.005Z,-3.73
2023-01-30T05:55:00.678Z,-3.78
2023-01-30T05:55:32.330Z,-3.82
2023-01-30T05:56:08.112Z,-3.86
2023-01-30T05:56:39.955Z,-3.86
2023-01-30T05:57:12.720Z,-3.89
2023-01-30T05:57:44.384Z,-3.94
2023-01-30T05:58:16.056Z,-3.96
2023-01-30T05:58:55.050Z,-4.03
2023-01-30T05:59:29.373Z,-4.07
2023-01-30T06:00:01.008Z,-4.10
2023-01-30T06:00:32.701Z,-4.07
2023-01-30T06:01:12.538Z,-4.10
2023-01-30T06:01:47.085Z,-4.16
2023-01-30T06:02:18.714Z,-4.18
2023-01-30T06:02:50.400Z,-4.19
2023-01-30T06:03:24.188Z,-4.21
2023-01-30T06:03:58.680Z,-4.23
2023-01-30T06:04:30.361Z,-4.21
2023-01-30T06:05:05.970Z,-4.22
2023-01-30T06:05:38.942Z,-4.24
2023-01-30T06:06:12.666Z,-4.25
2023-01-30T06:06:45.689Z,-4.28
2023-01-30T06:07:17.337Z,-4.30
2023-01-30T06:07:49.024Z,-4.31
2023-01-30T06:08:22.812Z,-4.35
2023-01-30T06:08:57.575Z,-4.38
2023-01-30T06:09:31.753Z,-4.38
2023-01-30T06:10:03.612Z,-4.36
2023-01-30T06:10:38.427Z,-4.38
2023-01-30T06:11:13.831Z,-4.36
2023-01-30T06:11:45.606Z,-4.38
2023-01-30T06:12:18.653Z,-4.39
2023-01-30T06:12:50.256Z,-4.41
2023-01-30T06:13:21.924Z,-4.44
2023-01-30T06:13:53.748Z,-4.41
2023-01-30T06:14:25.424Z,-4.41
2023-01-30T06:14:57.146Z,-4.41
2023-01-30T06:15:31.603Z,-4.42
2023-01-30T06:16:03.349Z,-4.44
2023-01-30T06:16:36.991Z,-4.48
2023-01-30T06:17:08.725Z,-4.44
2023-01-30T06:17:46.321Z,-4.41
2023-01-30T06:18:20.177Z,-4.37
2023-01-30T06:18:51.888Z,-4.38
2023-01-30T06:19:25.887Z,-4.38
2023-01-30T06:19:57.537Z,-4.39
2023-01-30T06:20:29.177Z,-4.42
2023-01-30T06:21:03.698Z,-4.41
2023-01-30T06:21:35.388Z,-4.42
2023-01-30T06:22:08.157Z,-4.41
2023-01-30T06:22:39.813Z,-4.44
2023-01-30T06:23:11.446Z,-4.45
2023-01-30T06:23:43.748Z,-4.45
2023-01-30T06:24:15.550Z,-4.45
2023-01-30T06:24:47.252Z,-4.49
2023-01-30T06:25:26.074Z,-4.53
2023-01-30T06:26:03.272Z,-4.52
2023-01-30T06:26:37.795Z,-4.50
2023-01-30T06:27:09.477Z,-4.49
2023-01-30T06:27:43.561Z,-4.48
2023-01-30T06:28:16.308Z,-4.45
2023-01-30T06:28:48.477Z,-4.47
2023-01-30T06:29:20.131Z,-4.46
2023-01-30T06:29:51.761Z,-4.47
2023-01-30T06:30:23.491Z,-4.49
2023-01-30T06:30:55.291Z,-4.49
2023-01-30T06:31:30.130Z,-4.48
2023-01-30T06:32:01.921Z,-4.47
2023-01-30T06:32:33.596Z,-4.48
2023-01-30T06:33:05.728Z,-4.45
2023-01-30T06:33:37.558Z,-4.47
2023-01-30T06:34:12.998Z,-4.46
2023-01-30T06:34:44.639Z,-4.44
2023-01-30T06:35:16.767Z,-4.47
2023-01-30T06:35:51.305Z,-4.52
2023-01-30T06:36:22.912Z,-4.52
2023-01-30T06:36:54.613Z,-4.48
2023-01-30T06:37:26.263Z,-4.47
2023-01-30T06:37:57.917Z,-4.45
2023-01-30T06:38:29.663Z,-4.47
2023-01-30T06:39:03.664Z,-4.44
2023-01-30T06:39:35.392Z,-4.43
2023-01-30T06:40:07.406Z,-4.41
2023-01-30T06:40:39.819Z,-4.40
2023-01-30T06:41:11.557Z,-4.38
2023-01-30T06:41:43.173Z,-4.38
2023-01-30T06:42:14.894Z,-4.35
2023-01-30T06:42:48.024Z,-4.34
2023-01-30T06:43:21.507Z,-4.30
2023-01-30T06:43:53.177Z,-4.27
2023-01-30T06:44:24.825Z,-4.27
2023-01-30T06:44:56.483Z,-4.25
2023-01-30T06:45:28.199Z,-4.24
2023-01-30T06:46:02.406Z,-4.24
2023-01-30T06:46:34.083Z,-4.20
2023-01-30T06:47:05.743Z,-4.17
2023-01-30T06:47:52.446Z,-4.13
2023-01-30T06:48:24.098Z,-4.10
2023-01-30T06:48:55.940Z,-4.06
2023-01-30T06:49:27.610Z,-4.04
2023-01-30T06:49:59.251Z,-4.02
2023-01-30T06:50:32.153Z,-4.05
2023-01-30T06:51:03.850Z,-4.01
2023-01-30T06:51:37.574Z,-4.03
2023-01-30T06:52:09.912Z,-4.02
2023-01-30T06:52:48.379Z,-3.99
2023-01-30T06:53:20.215Z,-3.97
2023-01-30T06:53:53.572Z,-3.97
2023-01-30T06:54:25.243Z,-3.96
2023-01-30T06:54:56.884Z,-3.96
2023-01-30T06:55:28.704Z,-3.96
2023-01-30T06:56:03.893Z,-3.95
2023-01-30T06:56:35.549Z,-3.95
2023-01-30T06:57:09.596Z,-3.94
2023-01-30T06:57:44.605Z,-3.91
2023-01-30T06:58:16.244Z,-3.89
2023-01-30T06:58:47.898Z,-3.88
2023-01-30T06:59:19.558Z,-3.85
2023-01-30T06:59:51.191Z,-3.85
2023-01-30T07:00:24.622Z,-3.84
2023-01-30T07:00:56.692Z,-3.79
2023-01-30T07:01:29.076Z,-3.75
2023-01-30T07:02:00.836Z,-3.70
2023-01-30T07:02:35.301Z,-3.65
2023-01-30T07:03:14.788Z,-3.61
2023-01-30T07:03:47.411Z,-3.61
2023-01-30T07:04:23.652Z,-3.59
2023-01-30T07:04:56.831Z,-3.54
2023-01-30T07:05:29.056Z,-3.52
2023-01-30T07:06:00.780Z,-3.47
2023-01-30T07:06:32.580Z,-3.42
2023-01-30T07:07:05.748Z,-3.39
2023-01-30T07:07:43.069Z,-3.36
2023-01-30T07:08:16.284Z,-3.32
2023-01-30T07:08:49.114Z,-3.26
2023-01-30T07:09:20.797Z,-3.20
2023-01-30T07:10:07.019Z,-3.15
2023-01-30T07:10:40.887Z,-3.07
2023-01-30T07:11:12.613Z,-3.01
2023-01-30T07:11:44.273Z,-2.98
2023-01-30T07:12:16.067Z,-2.94
2023-01-30T07:12:48.296Z,-2.92
2023-01-30T07:13:20.134Z,-2.90
2023-01-30T07:13:51.970Z,-2.86
2023-01-30T07:14:25.936Z,-2.83
2023-01-30T07:14:57.982Z,-2.79
2023-01-30T07:15:30.548Z,-2.73
2023-01-30T07:16:02.237Z,-2.67
2023-01-30T07:16:39.464Z,-2.60
2023-01-30T07:17:11.158Z,-2.53
2023-01-30T07:17:43.320Z,-2.50
2023-01-30T07:18:17.694Z,-2.43
2023-01-30T07:18:49.371Z,-2.38
2023-01-30T07:19:21.029Z,-2.35
2023-01-30T07:19:55.004Z,-2.33
2023-01-30T07:20:26.834Z,-2.32
2023-01-30T07:20:58.469Z,-2.31
2023-01-30T07:21:30.158Z,-2.27
2023-01-30T07:22:03.268Z,-2.20
2023-01-30T07:22:35.198Z,-2.16
2023-01-30T07:23:12.828Z,-2.12
2023-01-30T07:23:46.631Z,-2.13
2023-01-30T07:24:18.297Z,-2.11
2023-01-30T07:24:50.046Z,-2.11
2023-01-30T07:25:24.191Z,-2.12
2023-01-30T07:25:55.887Z,-2.09
2023-01-30T07:26:30.834Z,-2.06
2023-01-30T07:27:02.525Z,-2.02
2023-01-30T07:27:41.792Z,-2.01
2023-01-30T07:28:13.478Z,-2.04
2023-01-30T07:28:47.183Z,-2.03
2023-01-30T07:29:20.922Z,-1.99
2023-01-30T07:29:52.630Z,-1.97
2023-01-30T07:30:26.658Z,-1.96
2023-01-30T07:31:02.041Z,-1.94